createdAt,value
2022-09-06T00:02:06.443Z,95603.45
2022-09-06T00:04:32.859Z,95606.84
2022-09-06T00:06:59.228Z,95602.63
2022-09-06T00:09:25.601Z,95608.49
2022-09-06T00:11:51.988Z,95602.63
2022-09-06T00:14:18.367Z,95600.87
2022-09-06T00:16:44.788Z,95604.85
2022-09-06T00:19:11.165Z,95607.44
2022-09-06T00:21:37.570Z,95605.31
2022-09-06T00:24:03.971Z,95607.80
2022-09-06T00:26:30.347Z,95614.59
2022-09-06T00:28:56.725Z,95608.73
2022-09-06T00:31:23.201Z,95572.89
2022-09-06T00:33:49.487Z,95598.38
2022-09-06T00:36:15.871Z,95600.14
2022-09-06T00:38:42.248Z,95605.67
2022-09-06T00:41:08.634Z,95603.20
2022-09-06T00:43:35.013Z,95590.75
2022-09-06T00:46:01.443Z,95605.45
2022-09-06T00:48:27.836Z,95604.16
2022-09-06T00:50:54.163Z,95595.58
2022-09-06T00:53:20.572Z,95594.74
2022-09-06T00:55:46.956Z,95592.52
2022-09-06T00:58:13.348Z,95588.28
2022-09-06T01:00:39.726Z,95594.14
2022-09-06T01:03:06.117Z,95597.33
2022-09-06T01:05:32.501Z,95596.04
2022-09-06T01:07:59.825Z,95600.74
2022-09-06T01:10:25.268Z,95603.33
2022-09-06T01:12:51.654Z,95600.84
2022-09-06T01:15:18.035Z,95607.21
2022-09-06T01:17:44.408Z,95605.09
2022-09-06T01:20:10.796Z,95602.14
2022-09-06T01:22:39.634Z,95607.67
2022-09-06T01:25:03.559Z,95597.44
2022-09-06T01:27:29.948Z,95600.52
2022-09-06T01:29:56.322Z,95600.84
2022-09-06T01:32:22.733Z,95608.73
2022-09-06T01:34:49.137Z,95599.80
2022-09-06T01:37:15.668Z,95602.27
2022-09-06T01:39:42.110Z,95598.86
2022-09-06T01:42:08.439Z,95598.40
2022-09-06T01:44:34.813Z,95593.55
2022-09-06T01:47:01.207Z,95587.69
2022-09-06T01:49:27.587Z,95586.77
2022-09-06T01:51:53.997Z,95579.94
2022-09-06T01:54:20.374Z,95580.30
2022-09-06T01:56:46.752Z,95580.87
2022-09-06T01:59:13.169Z,95581.36
2022-09-06T02:01:39.668Z,95574.90
2022-09-06T02:04:05.984Z,95568.77
2022-09-06T02:06:32.368Z,95571.35
2022-09-06T02:08:58.756Z,95574.54
2022-09-06T02:11:25.157Z,95569.23
2022-09-06T02:13:51.534Z,95561.15
2022-09-06T02:16:17.999Z,95565.49
2022-09-06T02:18:44.395Z,95562.44
2022-09-06T02:21:10.768Z,95560.89
2022-09-06T02:23:37.200Z,95563.27
2022-09-06T02:26:03.573Z,95553.38
2022-09-06T02:28:29.967Z,95565.95
2022-09-06T02:30:56.386Z,95569.37
2022-09-06T02:33:22.750Z,95564.56
2022-09-06T02:35:49.158Z,95555.73
2022-09-06T02:38:15.538Z,95555.73
2022-09-06T02:40:41.921Z,95565.85
2022-09-06T02:43:08.299Z,95568.77
2022-09-06T02:45:34.693Z,95567.14
2022-09-06T02:48:01.087Z,95553.14
2022-09-06T02:50:27.476Z,95571.59
2022-09-06T02:52:53.864Z,95561.86
2022-09-06T02:55:20.239Z,95580.77
2022-09-06T02:57:46.626Z,95579.34
2022-09-06T03:00:13.046Z,95577.00
2022-09-06T03:02:39.646Z,95576.17
2022-09-06T03:05:05.912Z,95574.19
2022-09-06T03:07:32.409Z,95577.59
2022-09-06T03:09:58.780Z,95570.41
2022-09-06T03:12:25.172Z,95571.38
2022-09-06T03:14:54.831Z,95554.33
2022-09-06T03:17:17.938Z,95569.72
2022-09-06T03:19:44.309Z,95567.73
2022-09-06T03:22:10.705Z,95568.66
2022-09-06T03:24:37.084Z,95570.42
2022-09-06T03:27:03.466Z,95568.30
2022-09-06T03:29:29.836Z,95570.55
2022-09-06T03:31:56.351Z,95570.19
2022-09-06T03:34:22.730Z,95569.83
2022-09-06T03:36:49.120Z,95557.84
2022-09-06T03:39:16.702Z,95578.88
2022-09-06T03:41:41.883Z,95582.75
2022-09-06T03:44:08.265Z,95580.63
2022-09-06T03:46:34.728Z,95586.77
2022-09-06T03:49:02.093Z,95592.03
2022-09-06T03:51:27.525Z,95584.88
2022-09-06T03:53:53.911Z,95592.03
2022-09-06T03:56:20.279Z,95588.63
2022-09-06T03:58:46.657Z,95587.33
2022-09-06T04:01:13.112Z,95586.73
2022-09-06T04:03:39.437Z,95583.92
2022-09-06T04:06:05.829Z,95591.80
2022-09-06T04:08:32.213Z,95591.80
2022-09-06T04:10:58.600Z,95594.75
2022-09-06T04:13:24.988Z,95592.96
2022-09-06T04:15:51.379Z,95601.21
2022-09-06T04:18:17.758Z,95598.73
2022-09-06T04:20:44.144Z,95595.68
2022-09-06T04:23:10.520Z,95588.73
2022-09-06T04:25:36.908Z,95594.62
2022-09-06T04:28:03.280Z,95596.51
2022-09-06T04:30:29.672Z,95596.97
2022-09-06T04:32:56.048Z,95598.96
2022-09-06T04:35:22.437Z,95599.79
2022-09-06T04:37:48.906Z,95601.68
2022-09-06T04:40:15.290Z,95602.50
2022-09-06T04:42:41.669Z,95600.25
2022-09-06T04:45:08.111Z,95600.25
2022-09-06T04:47:34.472Z,95602.01
2022-09-06T04:50:00.858Z,95595.55
2022-09-06T04:52:30.195Z,95594.98
2022-09-06T04:54:53.615Z,95594.98
2022-09-06T04:57:20.030Z,95592.50
2022-09-06T04:59:46.407Z,95597.56
2022-09-06T05:02:12.876Z,95592.86
2022-09-06T05:04:39.264Z,95579.22
2022-09-06T05:07:05.633Z,95579.22
2022-09-06T05:09:32.131Z,95591.57
2022-09-06T05:11:58.510Z,95591.20
2022-09-06T05:14:25.000Z,95590.64
2022-09-06T05:16:51.450Z,95587.56
2022-09-06T05:19:17.792Z,95588.16
2022-09-06T05:21:44.168Z,95586.87
2022-09-06T05:24:10.553Z,95556.33
2022-09-06T05:26:36.959Z,95561.59
2022-09-06T05:29:03.344Z,95571.49
2022-09-06T05:31:29.756Z,95576.30
2022-09-06T05:33:56.107Z,95581.09
2022-09-06T05:36:22.488Z,95576.66
2022-09-06T05:38:48.892Z,95587.09
2022-09-06T05:41:15.276Z,95584.98
2022-09-06T05:43:41.659Z,95587.82
2022-09-06T05:46:08.096Z,95587.69
2022-09-06T05:48:36.991Z,95597.09
2022-09-06T05:51:00.884Z,95597.70
2022-09-06T05:53:27.256Z,95592.86
2022-09-06T05:55:53.647Z,95594.98
2022-09-06T05:58:20.020Z,95586.39
2022-09-06T06:00:46.422Z,95587.22
2022-09-06T06:03:12.780Z,95585.10
2022-09-06T06:05:39.291Z,95582.75
2022-09-06T06:08:05.680Z,95576.05
2022-09-06T06:10:34.357Z,95566.19
2022-09-06T06:12:58.475Z,95578.08
2022-09-06T06:15:25.117Z,95575.82
2022-09-06T06:17:51.490Z,95575.95
2022-09-06T06:20:17.878Z,95569.36
2022-09-06T06:22:44.285Z,95568.42
2022-09-06T06:25:12.595Z,95567.03
2022-09-06T06:27:37.057Z,95571.70
2022-09-06T06:30:03.512Z,95563.63
2022-09-06T06:32:29.893Z,95565.14
2022-09-06T06:34:56.276Z,95569.84
2022-09-06T06:37:22.660Z,95565.00
2022-09-06T06:39:49.068Z,95565.83
2022-09-06T06:42:15.425Z,95566.30
2022-09-06T06:44:41.910Z,95567.59
2022-09-06T06:47:08.291Z,95566.80
2022-09-06T06:49:34.942Z,95561.62
2022-09-06T06:52:01.342Z,95568.09
2022-09-06T06:54:27.724Z,95565.14
2022-09-06T06:56:54.120Z,95566.07
2022-09-06T06:59:22.483Z,95565.97
2022-09-06T07:01:48.991Z,95567.36
2022-09-06T07:04:15.246Z,95569.84
2022-09-06T07:09:08.091Z,95573.59
2022-09-06T07:11:34.493Z,95565.50
2022-09-06T07:14:00.874Z,95563.02
2022-09-06T07:16:27.295Z,95572.06
2022-09-06T07:18:53.635Z,95569.38
2022-09-06T07:26:12.849Z,95576.64
2022-09-06T07:28:39.345Z,95575.34
2022-09-06T07:31:06.050Z,95579.72
2022-09-06T07:33:32.211Z,95575.34
2022-09-06T07:35:58.586Z,95586.88
2022-09-06T07:38:24.978Z,95581.23
2022-09-06T07:40:51.378Z,95580.28
2022-09-06T07:43:17.743Z,95582.16
2022-09-06T07:45:44.138Z,95584.75
2022-09-06T07:48:10.515Z,95582.42
2022-09-06T07:50:54.620Z,95582.42
2022-09-06T07:55:29.652Z,95568.55
2022-09-06T07:57:56.037Z,95588.17
2022-09-06T08:00:22.435Z,95579.92
2022-09-06T08:02:48.797Z,95571.11
2022-09-06T08:07:41.563Z,95567.36
2022-09-06T08:10:07.950Z,95566.53
2022-09-06T08:12:34.331Z,95565.14
2022-09-06T08:15:00.723Z,95563.12
2022-09-06T08:17:27.110Z,95547.39
2022-09-06T08:19:53.524Z,95560.55
2022-09-06T08:22:19.937Z,95560.55
2022-09-06T08:24:46.313Z,95566.41
2022-09-06T08:27:12.752Z,95565.81
2022-09-06T08:29:39.128Z,95558.88
2022-09-06T08:32:05.516Z,95558.77
2022-09-06T08:34:32.021Z,95540.57
2022-09-06T08:36:58.400Z,95540.57
2022-09-06T08:39:24.850Z,95557.95
2022-09-06T08:41:51.195Z,95549.98
2022-09-06T08:46:44.082Z,95548.58
2022-09-06T08:49:10.392Z,95544.70
2022-09-06T08:51:38.625Z,95542.34
2022-09-06T08:54:03.155Z,95536.34
2022-09-06T08:56:29.536Z,95531.39
2022-09-06T08:58:55.919Z,95525.53
2022-09-06T09:01:22.300Z,95524.09
2022-09-06T09:03:48.681Z,95514.11
2022-09-06T09:06:15.077Z,95515.27
2022-09-06T09:08:41.486Z,95513.40
2022-09-06T09:11:07.909Z,95508.09
2022-09-06T09:13:34.293Z,95504.57
2022-09-06T09:16:00.715Z,95499.39
2022-09-06T09:18:27.197Z,95489.87
2022-09-06T09:20:53.495Z,95484.56
2022-09-06T09:23:19.871Z,95479.64
2022-09-06T09:25:46.256Z,95486.80
2022-09-06T09:28:12.640Z,95483.38
2022-09-06T09:33:05.418Z,95476.91
2022-09-06T09:35:31.834Z,95478.09
2022-09-06T09:38:05.029Z,95475.52
2022-09-06T09:40:24.620Z,95464.80
2022-09-06T09:42:50.993Z,95466.31
2022-09-06T09:45:17.464Z,95459.95
2022-09-06T09:47:43.835Z,95457.16
2022-09-06T09:50:10.227Z,95457.27
2022-09-06T09:52:36.613Z,95454.67
2022-09-06T09:55:02.995Z,95457.59
2022-09-06T09:57:29.417Z,95458.63
2022-09-06T09:59:55.781Z,95457.34
2022-09-06T10:02:22.319Z,95454.42
2022-09-06T10:04:48.700Z,95451.23
2022-09-06T10:07:15.078Z,95446.73
2022-09-06T10:09:41.469Z,95444.98
2022-09-06T10:12:07.921Z,95438.62
2022-09-06T10:14:34.315Z,95443.32
2022-09-06T10:17:00.796Z,95433.44
2022-09-06T10:19:27.325Z,95438.00
2022-09-06T10:21:53.709Z,95436.24
2022-09-06T10:24:27.736Z,95435.30
2022-09-06T10:26:46.465Z,95435.52
2022-09-06T10:29:12.855Z,95426.35
2022-09-06T10:31:39.322Z,95426.68
2022-09-06T10:34:05.623Z,95428.33
2022-09-06T10:36:32.005Z,95423.51
2022-09-06T10:39:03.103Z,95425.63
2022-09-06T10:41:24.862Z,95416.57
2022-09-06T10:43:51.250Z,95415.60
2022-09-06T10:46:17.666Z,95417.72
2022-09-06T10:48:44.039Z,95411.14
2022-09-06T10:51:10.452Z,95413.12
2022-09-06T10:53:36.835Z,95411.92
2022-09-06T10:56:03.211Z,95410.84
2022-09-06T10:58:29.779Z,95406.96
2022-09-06T11:00:55.978Z,95407.64
2022-09-06T11:05:48.780Z,95400.95
2022-09-06T11:10:41.652Z,95396.55
2022-09-06T11:13:08.040Z,95397.25
2022-09-06T11:15:34.463Z,95398.91
2022-09-06T11:18:00.819Z,95400.05
2022-09-06T11:20:31.367Z,95393.68
2022-09-06T11:22:53.706Z,95392.13
2022-09-06T11:25:20.068Z,95391.66
2022-09-06T11:27:46.562Z,95389.69
2022-09-06T11:30:12.945Z,95390.98
2022-09-06T11:32:39.325Z,95386.42
2022-09-06T11:35:05.709Z,95387.55
2022-09-06T11:37:32.091Z,95385.31
2022-09-06T11:42:24.933Z,95372.78
2022-09-06T11:44:51.316Z,95378.90
2022-09-06T11:47:17.702Z,95380.17
2022-09-06T11:49:44.095Z,95373.61
2022-09-06T11:52:10.476Z,95376.14
2022-09-06T11:54:36.861Z,95364.02
2022-09-06T11:57:03.252Z,95332.12
2022-09-06T11:59:29.633Z,95364.22
2022-09-06T12:01:56.047Z,95359.39
2022-09-06T12:04:22.428Z,95363.86
2022-09-06T12:06:48.858Z,95357.09
2022-09-06T12:09:15.233Z,95355.59
2022-09-06T12:11:41.795Z,95353.67
2022-09-06T12:14:08.181Z,95356.59
2022-09-06T12:16:34.567Z,95347.67
2022-09-06T12:19:00.954Z,95340.22
2022-09-06T12:21:27.331Z,95340.46
2022-09-06T12:23:53.718Z,95344.67
2022-09-06T12:26:20.118Z,95345.75
2022-09-06T12:28:46.500Z,95344.61
2022-09-06T12:31:18.127Z,95342.48
2022-09-06T12:33:39.283Z,95340.22
2022-09-06T12:36:07.790Z,95345.67
2022-09-06T12:38:32.187Z,95350.64
2022-09-06T12:40:58.757Z,95346.75
2022-09-06T12:43:25.005Z,95353.70
2022-09-06T12:45:51.390Z,95345.45
2022-09-06T12:48:17.781Z,95347.22
2022-09-06T12:50:44.158Z,95335.92
2022-09-06T12:53:12.646Z,95337.22
2022-09-06T12:55:36.967Z,95331.69
2022-09-06T12:58:05.019Z,95333.33
2022-09-06T13:00:29.743Z,95328.04
2022-09-06T13:02:56.236Z,95332.72
2022-09-06T13:05:22.544Z,95330.48
2022-09-06T13:07:49.135Z,95324.09
2022-09-06T13:10:15.614Z,95319.96
2022-09-06T13:12:41.996Z,95324.38
2022-09-06T13:15:08.387Z,95328.93
2022-09-06T13:17:34.786Z,95327.33
2022-09-06T13:20:01.205Z,95321.73
2022-09-06T13:22:27.549Z,95319.86
2022-09-06T13:24:53.935Z,95324.98
2022-09-06T13:27:20.317Z,95324.67
2022-09-06T13:29:46.711Z,95323.63
2022-09-06T13:32:13.208Z,95314.29
2022-09-06T13:34:39.619Z,95313.18
2022-09-06T13:37:06.016Z,95316.09
2022-09-06T13:39:32.496Z,95308.42
2022-09-06T13:41:58.812Z,95315.36
2022-09-06T13:44:25.275Z,95315.17
2022-09-06T13:46:51.656Z,95313.05
2022-09-06T13:49:18.044Z,95308.99
2022-09-06T13:51:44.422Z,95314.27
2022-09-06T13:54:10.902Z,95314.48
2022-09-06T13:56:37.304Z,95321.41
2022-09-06T13:59:03.692Z,95314.30
2022-09-06T14:01:30.191Z,95314.47
2022-09-06T14:03:58.713Z,95312.82
2022-09-06T14:06:25.118Z,95312.11
2022-09-06T14:09:08.250Z,95312.49
2022-09-06T14:11:17.906Z,95308.52
2022-09-06T14:13:44.315Z,95296.66
2022-09-06T14:16:10.742Z,95301.37
2022-09-06T14:18:37.103Z,95299.72
2022-09-06T14:21:03.489Z,95301.58
2022-09-06T14:23:29.903Z,95302.48
2022-09-06T14:25:56.284Z,95302.12
2022-09-06T14:28:22.813Z,95290.33
2022-09-06T14:30:49.102Z,95288.83
2022-09-06T14:33:15.457Z,95298.77
2022-09-06T14:35:41.841Z,95297.48
2022-09-06T14:38:08.222Z,95300.36
2022-09-06T14:40:34.609Z,95298.61
2022-09-06T14:43:01.006Z,95303.34
2022-09-06T14:45:27.390Z,95300.25
2022-09-06T14:47:53.845Z,95296.13
2022-09-06T14:50:20.225Z,95301.42
2022-09-06T14:52:46.610Z,95298.92
2022-09-06T14:55:13.000Z,95294.09
2022-09-06T14:57:39.502Z,95297.89
2022-09-06T15:00:05.877Z,95304.03
2022-09-06T15:02:32.297Z,95296.50
2022-09-06T15:04:58.676Z,95294.27
2022-09-06T15:07:25.134Z,95296.03
2022-09-06T15:09:51.517Z,95294.41
2022-09-06T15:12:17.904Z,95289.56
2022-09-06T15:14:44.285Z,95289.44
2022-09-06T15:17:10.670Z,95289.03
2022-09-06T15:19:37.059Z,95291.63
2022-09-06T15:22:03.467Z,95297.16
2022-09-06T15:24:29.859Z,95289.86
2022-09-06T15:26:56.294Z,95293.66
2022-09-06T15:29:22.704Z,95294.95
2022-09-06T15:31:49.087Z,95297.07
2022-09-06T15:34:15.467Z,95305.75
2022-09-06T15:36:41.863Z,95309.27
2022-09-06T15:39:08.234Z,95312.69
2022-09-06T15:41:34.623Z,95318.69
2022-09-06T15:44:01.004Z,95314.45
2022-09-06T15:46:27.449Z,95316.09
2022-09-06T15:48:53.793Z,95310.56
2022-09-06T15:51:20.185Z,95310.36
2022-09-06T15:53:46.568Z,95318.95
2022-09-06T15:56:12.986Z,95319.30
2022-09-06T15:58:39.415Z,95322.00
2022-09-06T16:01:05.852Z,95325.06
2022-09-06T16:03:32.154Z,95327.54
2022-09-06T16:08:24.984Z,95327.66
2022-09-06T16:10:51.308Z,95324.39
2022-09-06T16:13:17.694Z,95327.91
2022-09-06T16:15:44.073Z,95325.33
2022-09-06T16:18:10.454Z,95327.91
2022-09-06T16:20:36.838Z,95325.47
2022-09-06T16:23:03.223Z,95325.68
2022-09-06T16:25:29.596Z,95323.20
2022-09-06T16:27:55.983Z,95321.23
2022-09-06T16:30:22.426Z,95322.17
2022-09-06T16:32:48.832Z,95323.61
2022-09-06T16:35:15.221Z,95320.67
2022-09-06T16:37:41.632Z,95323.25
2022-09-06T16:40:08.089Z,95327.87
2022-09-06T16:42:34.400Z,95328.58
2022-09-06T16:45:00.794Z,95325.84
2022-09-06T16:47:27.208Z,95328.58
2022-09-06T16:49:53.593Z,95329.16
2022-09-06T16:52:19.970Z,95331.64
2022-09-06T16:54:46.392Z,95337.95
2022-09-06T16:57:12.746Z,95334.91
2022-09-06T16:59:39.133Z,95346.44
2022-09-06T17:02:05.689Z,95340.55
2022-09-06T17:04:31.928Z,95346.20
2022-09-06T17:06:58.297Z,95347.84
2022-09-06T17:09:24.677Z,95349.14
2022-09-06T17:11:51.090Z,95343.96
2022-09-06T17:14:17.492Z,95349.14
2022-09-06T17:16:43.943Z,95355.97
2022-09-06T17:19:10.275Z,95359.23
2022-09-06T17:21:36.648Z,95353.12
2022-09-06T17:24:03.068Z,95359.44
2022-09-06T17:26:29.416Z,95366.16
2022-09-06T17:28:55.796Z,95373.36
2022-09-06T17:31:25.694Z,95371.23
2022-09-06T17:33:48.560Z,95373.36
2022-09-06T17:36:14.942Z,95372.06
2022-09-06T17:38:41.320Z,95371.09
2022-09-06T17:41:07.713Z,95376.27
2022-09-06T17:43:34.094Z,95378.03
2022-09-06T17:46:00.531Z,95375.12
2022-09-06T17:48:26.909Z,95374.65
2022-09-06T17:50:54.886Z,95379.83
2022-09-06T17:53:19.620Z,95380.77
2022-09-06T17:55:46.007Z,95384.86
2022-09-06T17:58:12.380Z,95385.58
2022-09-06T18:00:38.796Z,95386.88
2022-09-06T18:03:05.186Z,95392.88
2022-09-06T18:05:31.578Z,95387.84
2022-09-06T18:07:57.962Z,95391.94
2022-09-06T18:10:24.583Z,95393.56
2022-09-06T18:12:50.971Z,95396.39
2022-09-06T18:15:17.431Z,95394.62
2022-09-06T18:17:43.816Z,95397.55
2022-09-06T18:20:10.215Z,95403.08
2022-09-06T18:22:37.648Z,95404.84
2022-09-06T18:25:02.986Z,95405.52
2022-09-06T18:27:29.363Z,95408.11
2022-09-06T18:29:55.755Z,95406.81
2022-09-06T18:32:22.132Z,95401.78
2022-09-06T18:34:48.511Z,95405.05
2022-09-06T18:37:14.925Z,95406.81
2022-09-06T18:39:41.328Z,95408.86
2022-09-06T18:42:07.685Z,95407.77
2022-09-06T18:44:34.086Z,95406.63
2022-09-06T18:47:00.469Z,95409.91
2022-09-06T18:49:26.853Z,95409.29
2022-09-06T18:51:53.237Z,95412.73
2022-09-06T18:54:19.622Z,95407.91
2022-09-06T18:56:46.034Z,95416.98
2022-09-06T18:59:12.419Z,95405.80
2022-09-06T19:01:38.895Z,95410.97
2022-09-06T19:04:05.195Z,95409.06
2022-09-06T19:06:31.592Z,95412.13
2022-09-06T19:08:58.045Z,95415.89
2022-09-06T19:11:24.420Z,95417.19
2022-09-06T19:13:50.810Z,95415.18
2022-09-06T19:16:17.225Z,95418.48
2022-09-06T19:18:43.578Z,95416.22
2022-09-06T19:21:09.960Z,95416.72
2022-09-06T19:23:36.350Z,95417.19
2022-09-06T19:26:02.742Z,95410.36
2022-09-06T19:28:29.244Z,95407.41
2022-09-06T19:30:55.509Z,95412.13
2022-09-06T19:33:21.893Z,95408.24
2022-09-06T19:36:07.937Z,95401.09
2022-09-06T19:38:14.698Z,95404.11
2022-09-06T19:40:41.074Z,95407.09
2022-09-06T19:43:07.489Z,95403.20
2022-09-06T19:45:33.868Z,95398.94
2022-09-06T19:48:00.263Z,95390.95
2022-09-06T19:50:26.648Z,95395.67
2022-09-06T19:52:53.039Z,95390.60
2022-09-06T19:55:19.416Z,95392.25
2022-09-06T19:57:45.805Z,95395.42
2022-09-06T20:00:12.244Z,95392.05
2022-09-06T20:02:38.646Z,95396.72
2022-09-06T20:05:05.020Z,95392.27
2022-09-06T20:07:31.430Z,95397.80
2022-09-06T20:09:57.828Z,95394.86
2022-09-06T20:12:24.264Z,95398.27
2022-09-06T20:14:50.642Z,95392.41
2022-09-06T20:17:33.310Z,95390.65
2022-09-06T20:19:43.411Z,95393.34
2022-09-06T20:22:09.801Z,95390.77
2022-09-06T20:24:36.217Z,95392.88
2022-09-06T20:27:02.636Z,95393.23
2022-09-06T20:29:29.049Z,95388.64
2022-09-06T20:31:55.490Z,95391.73
2022-09-06T20:34:21.820Z,95387.84
2022-09-06T20:36:48.197Z,95392.67
2022-09-06T20:39:14.596Z,95393.49
2022-09-06T20:41:40.956Z,95394.43
2022-09-06T20:44:07.340Z,95390.19
2022-09-06T20:46:33.746Z,95394.08
2022-09-06T20:49:00.110Z,95401.84
2022-09-06T20:51:26.609Z,95405.61
2022-09-06T20:53:52.997Z,95399.25
2022-09-06T20:56:19.378Z,95399.75
2022-09-06T20:58:45.762Z,95401.52
2022-09-06T21:01:12.239Z,95389.66
2022-09-06T21:03:38.525Z,95389.66
2022-09-06T21:06:04.907Z,95403.74
2022-09-06T21:08:34.700Z,95403.39
2022-09-06T21:10:57.670Z,95405.03
2022-09-06T21:13:24.051Z,95408.45
2022-09-06T21:15:50.461Z,95403.39
2022-09-06T21:18:16.805Z,95409.39
2022-09-06T21:20:43.300Z,95408.92
2022-09-06T21:23:09.672Z,95410.33
2022-09-06T21:25:36.102Z,95408.56
2022-09-06T21:28:02.509Z,95406.94
2022-09-06T21:30:28.894Z,95405.15
2022-09-06T21:32:55.293Z,95410.33
2022-09-06T21:35:21.705Z,95410.47
2022-09-06T21:37:48.081Z,95404.83
2022-09-06T21:40:14.467Z,95403.64
2022-09-06T21:42:40.844Z,95403.17
2022-09-06T21:45:07.231Z,95403.17
2022-09-06T21:47:35.055Z,95396.70
2022-09-06T21:49:59.999Z,95402.34
2022-09-06T21:52:26.372Z,95401.52
2022-09-06T21:54:52.760Z,95402.81
2022-09-06T21:57:19.151Z,95405.41
2022-09-06T21:59:45.543Z,95410.25
2022-09-06T22:02:11.968Z,95406.84
2022-09-06T22:04:38.363Z,95407.66
2022-09-06T22:07:04.733Z,95409.42
2022-09-06T22:09:31.251Z,95406.48
2022-09-06T22:11:57.634Z,95406.84
2022-09-06T22:14:24.126Z,95407.78
2022-09-06T22:16:50.508Z,95405.66
2022-09-06T22:19:16.887Z,95412.13
2022-09-06T22:21:43.261Z,95408.25
2022-09-06T22:24:09.646Z,95412.59
2022-09-06T22:26:36.021Z,95408.71
2022-09-06T22:29:02.624Z,95412.59
2022-09-06T22:31:29.042Z,95406.13
2022-09-06T22:33:55.412Z,95408.03
2022-09-06T22:36:21.815Z,95398.97
2022-09-06T22:38:48.210Z,95404.98
2022-09-06T22:41:14.617Z,95402.39
2022-09-06T22:43:41.118Z,95402.03
2022-09-06T22:46:07.537Z,95398.62
2022-09-06T22:48:33.881Z,95405.91
2022-09-06T22:51:00.346Z,95399.91
2022-09-06T22:53:26.727Z,95397.00
2022-09-06T22:55:53.473Z,95394.88
2022-09-06T22:58:19.885Z,95397.47
2022-09-06T23:00:46.311Z,95396.17
2022-09-06T23:03:12.678Z,95399.59
2022-09-06T23:05:39.035Z,95404.29
2022-09-06T23:08:05.422Z,95405.70
2022-09-06T23:10:31.801Z,95405.70
2022-09-06T23:12:58.187Z,95404.87
2022-09-06T23:15:24.569Z,95401.81
2022-09-06T23:17:50.951Z,95404.05
2022-09-06T23:20:17.329Z,95399.70
2022-09-06T23:22:43.719Z,95400.66
2022-09-06T23:25:10.094Z,95410.19
2022-09-06T23:27:36.479Z,95399.70
2022-09-06T23:30:02.864Z,95403.72
2022-09-06T23:32:29.244Z,95401.96
2022-09-06T23:34:55.674Z,95406.77
2022-09-06T23:37:22.055Z,95408.42
2022-09-06T23:39:48.499Z,95399.95
2022-09-06T23:42:14.824Z,95400.77
2022-09-06T23:44:41.208Z,95400.77
2022-09-06T23:47:07.588Z,95403.83
2022-09-06T23:49:33.969Z,95410.44
2022-09-06T23:52:00.429Z,95412.53
2022-09-06T23:54:26.814Z,95419.00
2022-09-06T23:56:53.194Z,95416.41
2022-09-06T23:59:19.576Z,95424.17
